Time;durP1;ratioP1;P1;durP2;ratioP2;P2;SDS_P1;SDS_P2;PMS_P1;PMS_P2;Temp;Humidity;BMP_temperature;BMP_pressure;BME280_temperature;BME280_humidity;BME280_pressure;Samples;Min_cycle;Max_cycle;Signal;HPM_P1;HPM_P2
2023/12/03 00:00:16;;;;;;;2.60;1.30;;;;;;;3.11;100.00;99533.83;109350;1253;59076;-64
2023/12/03 00:02:44;;;;;;;3.20;1.50;;;;;;;3.13;100.00;99530.60;109318;1253;72785;-64
2023/12/03 00:05:12;;;;;;;2.40;1.10;;;;;;;3.14;100.00;99522.77;109341;1254;65708;-64
2023/12/03 00:07:40;;;;;;;2.50;1.00;;;;;;;3.15;100.00;99520.94;109292;1253;72766;-64
2023/12/03 00:10:08;;;;;;;2.40;1.20;;;;;;;3.17;100.00;99524.19;109259;1253;60961;-64
2023/12/03 00:12:38;;;;;;;6.90;1.50;;;;;;;3.20;100.00;99524.79;109368;1254;58928;-64
2023/12/03 00:15:06;;;;;;;4.20;1.90;;;;;;;3.22;100.00;99521.48;109323;1253;74834;-63
2023/12/03 00:17:34;;;;;;;4.10;2.00;;;;;;;3.23;100.00;99517.56;109313;1253;65720;-64
2023/12/03 00:20:03;;;;;;;4.60;2.30;;;;;;;3.27;100.00;99515.52;109267;1253;73197;-64
2023/12/03 00:22:30;;;;;;;4.70;2.70;;;;;;;3.28;100.00;99516.04;109274;1254;59703;-63
2023/12/03 00:24:58;;;;;;;4.20;2.20;;;;;;;3.30;100.00;99508.67;109300;1253;58935;-63
2023/12/03 00:27:26;;;;;;;4.10;2.40;;;;;;;3.30;100.00;99494.39;109317;1253;74745;-63
2023/12/03 00:29:53;;;;;;;5.50;2.80;;;;;;;3.32;100.00;99480.48;109265;1253;65734;-64
2023/12/03 00:32:21;;;;;;;4.00;2.00;;;;;;;3.32;100.00;99491.90;109291;1253;72733;-63
2023/12/03 00:34:48;;;;;;;4.40;2.50;;;;;;;3.33;100.00;99510.77;109285;1253;60992;-63
2023/12/03 00:37:17;;;;;;;3.30;2.00;;;;;;;3.36;100.00;99507.19;109287;1253;59097;-63
2023/12/03 00:39:44;;;;;;;5.70;2.60;;;;;;;3.37;100.00;99506.21;109326;1253;74847;-63
2023/12/03 00:42:12;;;;;;;5.70;2.60;;;;;;;3.39;100.00;99500.54;109263;1253;67575;-64
2023/12/03 00:44:39;;;;;;;4.60;2.80;;;;;;;3.40;100.00;99496.92;109299;1253;72690;-63
2023/12/03 00:47:08;;;;;;;5.10;2.30;;;;;;;3.42;100.00;99487.16;109271;1253;60091;-63
2023/12/03 00:49:35;;;;;;;5.20;2.70;;;;;;;3.44;100.00;99475.95;109290;1253;60099;-63
2023/12/03 00:52:04;;;;;;;5.80;2.70;;;;;;;3.47;100.00;99474.99;109262;1253;74670;-64
2023/12/03 00:54:32;;;;;;;5.10;2.60;;;;;;;3.49;100.00;99484.95;109303;1253;66285;-63
2023/12/03 00:57:00;;;;;;;6.20;2.50;;;;;;;3.51;100.00;99479.86;109281;1253;72113;-63
2023/12/03 00:59:27;;;;;;;6.40;3.30;;;;;;;3.53;100.00;99470.23;109391;1253;62340;-63
2023/12/03 01:01:55;;;;;;;4.50;3.00;;;;;;;3.54;100.00;99471.54;109336;1253;58909;-63
2023/12/03 01:04:23;;;;;;;6.40;3.40;;;;;;;3.53;100.00;99474.66;109277;1253;73312;-64
2023/12/03 01:06:50;;;;;;;5.80;3.30;;;;;;;3.56;100.00;99475.77;109354;1253;65129;-63
2023/12/03 01:09:18;;;;;;;5.70;3.30;;;;;;;3.57;100.00;99467.91;109319;1253;72733;-63
2023/12/03 01:11:46;;;;;;;6.30;3.50;;;;;;;3.61;100.00;99454.99;109321;1253;62207;-63
2023/12/03 01:14:14;;;;;;;7.60;3.70;;;;;;;3.63;100.00;99453.05;109316;1253;60067;-63
2023/12/03 01:16:41;;;;;;;6.40;3.40;;;;;;;3.64;100.00;99446.95;109265;1253;73443;-64
2023/12/03 01:19:09;;;;;;;6.90;3.60;;;;;;;3.65;100.00;99443.15;109289;1253;66024;-63
2023/12/03 01:21:37;;;;;;;6.70;4.10;;;;;;;3.66;100.00;99441.71;109299;1253;72755;-63
2023/12/03 01:24:04;;;;;;;5.10;3.40;;;;;;;3.68;100.00;99443.98;109339;1253;60170;-63
2023/12/03 01:26:32;;;;;;;7.00;4.00;;;;;;;3.67;100.00;99444.07;109335;1253;58954;-64
2023/12/03 01:29:00;;;;;;;6.30;3.50;;;;;;;3.68;100.00;99438.33;109349;1253;74747;-63
2023/12/03 01:31:27;;;;;;;8.00;4.00;;;;;;;3.69;100.00;99434.30;109346;1252;65691;-63
2023/12/03 01:33:55;;;;;;;7.70;4.60;;;;;;;3.72;100.00;99425.38;109294;1253;72773;-63
2023/12/03 01:36:22;;;;;;;7.10;4.20;;;;;;;3.74;100.00;99421.19;109320;1253;61732;-63
2023/12/03 01:38:50;;;;;;;7.60;4.10;;;;;;;3.76;100.00;99409.91;109305;1253;60167;-63
2023/12/03 01:41:18;;;;;;;6.40;4.30;;;;;;;3.79;100.00;99404.69;109341;1253;73459;-63
2023/12/03 01:43:49;;;;;;;7.10;4.60;;;;;;;3.82;100.00;99401.09;109363;1253;66539;-63
2023/12/03 01:46:18;;;;;;;7.80;4.50;;;;;;;3.83;100.00;99398.55;109342;1253;71444;-64
2023/12/03 01:48:46;;;;;;;7.60;5.00;;;;;;;3.86;100.00;99400.52;109269;1253;61000;-63
2023/12/03 01:51:13;;;;;;;8.30;5.10;;;;;;;3.91;100.00;99394.42;109345;1253;59002;-63
2023/12/03 01:53:42;;;;;;;9.00;4.90;;;;;;;3.97;100.00;99388.89;109347;1252;73894;-63
2023/12/03 01:56:10;;;;;;;8.30;4.90;;;;;;;4.02;100.00;99388.36;109297;1253;67182;-64
2023/12/03 01:58:39;;;;;;;10.40;7.20;;;;;;;4.06;100.00;99390.95;109321;1253;71745;-64
2023/12/03 02:01:06;;;;;;;10.70;6.70;;;;;;;4.12;100.00;99387.59;109342;1253;60866;-63
2023/12/03 02:03:34;;;;;;;14.00;7.40;;;;;;;4.17;100.00;99379.33;109352;1252;59394;-63
2023/12/03 02:06:06;;;;;;;9.70;6.10;;;;;;;4.22;100.00;99371.42;109283;1252;74731;-64
2023/12/03 02:08:34;;;;;;;10.10;6.40;;;;;;;4.26;100.00;99358.46;109370;1253;67074;-63
2023/12/03 02:11:06;;;;;;;12.00;7.10;;;;;;;4.30;100.00;99351.25;109333;1253;72720;-63
2023/12/03 02:13:36;;;;;;;13.20;7.40;;;;;;;4.33;100.00;99336.05;109299;1253;60083;-63
2023/12/03 02:16:05;;;;;;;13.30;8.30;;;;;;;4.36;100.00;99329.67;109275;1253;58905;-64
2023/12/03 02:18:32;;;;;;;14.50;8.70;;;;;;;4.44;100.00;99320.58;109299;1253;74690;-63
2023/12/03 02:21:00;;;;;;;10.90;6.80;;;;;;;4.49;100.00;99322.27;109342;1253;67109;-63
2023/12/03 02:23:28;;;;;;;15.40;8.80;;;;;;;4.55;100.00;99322.77;109326;1253;72836;-63
2023/12/03 02:25:56;;;;;;;15.10;9.60;;;;;;;4.62;100.00;99323.74;109320;1253;60482;-63
2023/12/03 02:28:24;;;;;;;16.10;9.60;;;;;;;4.71;100.00;99323.48;109268;1253;60502;-64
2023/12/03 02:30:51;;;;;;;16.70;9.70;;;;;;;4.79;100.00;99321.49;109368;1252;74658;-63
2023/12/03 02:33:19;;;;;;;16.70;9.80;;;;;;;4.90;100.00;99311.23;109395;1253;66099;-63
2023/12/03 02:35:47;;;;;;;19.70;11.10;;;;;;;4.97;100.00;99295.31;109332;1253;71451;-63
2023/12/03 02:38:14;;;;;;;18.70;10.60;;;;;;;5.07;100.00;99287.55;109165;1253;61235;-63
2023/12/03 02:40:42;;;;;;;21.10;11.80;;;;;;;5.14;100.00;99283.10;109297;1252;58873;-63
2023/12/03 02:43:10;;;;;;;20.60;11.60;;;;;;;5.25;100.00;99282.57;109344;1253;73467;-63
2023/12/03 02:45:37;;;;;;;18.80;11.50;;;;;;;5.35;100.00;99282.27;109361;1253;65640;-63
2023/12/03 02:48:05;;;;;;;18.50;10.50;;;;;;;5.48;100.00;99288.30;109300;1253;72719;-64
2023/12/03 02:50:33;;;;;;;20.80;13.10;;;;;;;5.64;100.00;99285.69;109293;1253;61787;-63
2023/12/03 02:53:01;;;;;;;19.20;11.10;;;;;;;5.75;100.00;99276.80;109341;1253;60300;-63
2023/12/03 02:55:29;;;;;;;18.40;11.70;;;;;;;5.86;100.00;99278.73;109284;1253;74719;-63
2023/12/03 02:57:57;;;;;;;21.30;12.60;;;;;;;6.00;100.00;99277.11;109334;1253;66944;-63
2023/12/03 03:00:24;;;;;;;22.50;12.80;;;;;;;6.13;100.00;99281.63;109315;1253;72772;-65
2023/12/03 03:02:53;;;;;;;21.60;12.40;;;;;;;6.25;100.00;99287.81;109304;1253;61728;-64
2023/12/03 03:05:21;;;;;;;20.40;12.60;;;;;;;6.43;100.00;99296.92;109346;1253;60082;-63
2023/12/03 03:07:49;;;;;;;20.00;12.30;;;;;;;6.63;100.00;99297.89;109299;1253;72873;-64
2023/12/03 03:10:16;;;;;;;21.70;13.70;;;;;;;6.80;100.00;99291.17;109334;1253;66799;-64
2023/12/03 03:12:44;;;;;;;23.50;13.80;;;;;;;6.98;100.00;99289.73;109271;1253;72685;-64
2023/12/03 03:15:12;;;;;;;19.00;14.00;;;;;;;7.12;100.00;99282.92;109267;1253;60444;-63
2023/12/03 03:17:39;;;;;;;24.10;11.70;;;;;;;7.24;100.00;99281.13;109386;1253;60483;-64
2023/12/03 03:20:08;;;;;;;25.70;14.40;;;;;;;7.32;100.00;99278.50;109324;1253;74792;-63
2023/12/03 03:22:35;;;;;;;20.90;12.40;;;;;;;7.41;100.00;99276.62;109362;1253;66165;-64
2023/12/03 03:25:04;;;;;;;19.70;12.30;;;;;;;7.46;100.00;99276.98;109258;1254;72457;-64
2023/12/03 03:27:31;;;;;;;19.70;13.20;;;;;;;7.53;100.00;99288.29;109217;1254;61865;-64
2023/12/03 03:29:59;;;;;;;17.90;12.40;;;;;;;7.57;100.00;99290.71;109209;1253;60074;-64
2023/12/03 03:32:27;;;;;;;19.60;12.90;;;;;;;7.64;100.00;99284.34;109236;1254;74768;-64
2023/12/03 03:34:55;;;;;;;21.80;13.10;;;;;;;7.70;100.00;99279.80;109202;1254;67677;-64
2023/12/03 03:37:22;;;;;;;19.20;12.10;;;;;;;7.77;100.00;99275.48;109243;1253;72543;-64
2023/12/03 03:39:50;;;;;;;16.80;12.50;;;;;;;7.89;100.00;99278.79;109203;1254;60506;-64
2023/12/03 03:42:18;;;;;;;20.90;12.50;;;;;;;8.00;100.00;99277.58;109220;1254;60112;-63
2023/12/03 03:44:45;;;;;;;20.80;12.40;;;;;;;8.12;100.00;99280.65;109183;1253;73430;-64
2023/12/03 03:47:13;;;;;;;17.40;10.60;;;;;;;8.25;100.00;99279.89;109183;1254;65682;-64
2023/12/03 03:49:41;;;;;;;20.80;11.30;;;;;;;8.38;100.00;99271.17;109174;1255;72779;-64
2023/12/03 03:52:09;;;;;;;18.40;11.20;;;;;;;8.51;100.00;99267.86;109219;1254;61685;-64
2023/12/03 03:54:40;;;;;;;19.40;10.80;;;;;;;8.59;100.00;99258.57;109212;1254;62340;-64
2023/12/03 03:57:08;;;;;;;19.20;11.80;;;;;;;8.72;100.00;99255.18;109192;1255;74680;-64
2023/12/03 03:59:36;;;;;;;16.10;11.20;;;;;;;8.80;100.00;99255.09;109239;1254;66037;-64
2023/12/03 04:02:04;;;;;;;21.90;10.50;;;;;;;8.89;100.00;99260.02;109214;1253;73015;-64
2023/12/03 04:04:31;;;;;;;18.20;10.40;;;;;;;8.95;100.00;99256.96;109220;1254;60614;-64
2023/12/03 04:06:59;;;;;;;17.20;10.30;;;;;;;9.03;100.00;99261.92;109200;1254;58890;-64
2023/12/03 04:09:27;;;;;;;18.50;11.30;;;;;;;9.10;100.00;99262.79;109201;1254;74682;-64
2023/12/03 04:11:55;;;;;;;18.50;10.40;;;;;;;9.18;100.00;99270.16;109250;1254;66882;-63
2023/12/03 04:14:22;;;;;;;18.80;10.20;;;;;;;9.24;100.00;99277.67;109251;1254;72875;-63
2023/12/03 04:16:50;;;;;;;15.00;9.50;;;;;;;9.31;100.00;99272.38;109241;1254;60497;-64
2023/12/03 04:19:17;;;;;;;17.50;9.50;;;;;;;9.37;100.00;99270.66;109169;1254;59832;-64
2023/12/03 04:21:45;;;;;;;18.70;9.90;;;;;;;9.42;100.00;99256.82;109236;1254;74653;-64
2023/12/03 04:24:13;;;;;;;17.70;10.00;;;;;;;9.48;100.00;99251.65;109291;1253;66221;-63
2023/12/03 04:26:44;;;;;;;19.30;10.10;;;;;;;9.55;100.00;99243.73;109330;1252;72808;-64
2023/12/03 04:29:11;;;;;;;18.20;10.10;;;;;;;9.60;100.00;99239.52;109188;1254;60723;-64
2023/12/03 04:31:39;;;;;;;17.40;9.70;;;;;;;9.66;100.00;99228.59;109332;1252;60145;-64
2023/12/03 04:34:07;;;;;;;17.70;10.20;;;;;;;9.70;100.00;99231.14;109353;1253;73748;-64
2023/12/03 04:36:35;;;;;;;16.90;10.00;;;;;;;9.74;100.00;99235.84;109412;1253;65770;-63
2023/12/03 04:39:04;;;;;;;14.10;8.80;;;;;;;9.76;100.00;99233.14;109351;1253;71406;-63
2023/12/03 04:41:36;;;;;;;15.60;8.80;;;;;;;9.78;100.00;99241.87;109311;1253;61697;-63
2023/12/03 04:44:06;;;;;;;18.20;8.70;;;;;;;9.79;100.00;99243.67;109352;1252;60193;-63
2023/12/03 04:46:34;;;;;;;20.30;8.50;;;;;;;9.81;100.00;99228.77;109338;1253;73928;-63
2023/12/03 04:49:02;;;;;;;16.70;8.30;;;;;;;9.86;100.00;99225.19;109286;1254;65621;-63
2023/12/03 04:51:29;;;;;;;17.30;9.90;;;;;;;9.90;100.00;99223.75;109347;1252;72708;-63
2023/12/03 04:53:57;;;;;;;14.80;7.80;;;;;;;9.93;100.00;99222.98;109288;1253;60522;-63
2023/12/03 04:56:25;;;;;;;11.30;7.00;;;;;;;9.97;100.00;99221.29;109366;1252;60273;-62
2023/12/03 04:58:52;;;;;;;14.70;7.70;;;;;;;9.95;100.00;99221.53;109312;1253;74705;-63
2023/12/03 05:01:20;;;;;;;15.00;7.80;;;;;;;10.00;100.00;99209.79;109331;1252;65753;-63
2023/12/03 05:03:47;;;;;;;12.70;7.40;;;;;;;10.04;100.00;99210.98;109371;1252;71857;-63
2023/12/03 05:06:15;;;;;;;15.70;7.10;;;;;;;10.08;100.00;99214.50;109333;1252;60952;-63
2023/12/03 05:08:43;;;;;;;9.00;5.60;;;;;;;10.10;100.00;99212.80;109357;1253;60134;-63
2023/12/03 05:11:10;;;;;;;17.80;7.30;;;;;;;10.12;100.00;99216.07;109275;1253;73935;-63
2023/12/03 05:13:38;;;;;;;19.30;6.80;;;;;;;10.14;100.00;99215.70;109366;1253;66045;-62
2023/12/03 05:16:06;;;;;;;17.40;7.00;;;;;;;10.19;100.00;99213.81;109326;1253;71054;-62
2023/12/03 05:18:33;;;;;;;11.80;7.10;;;;;;;10.24;100.00;99201.34;109347;1253;60417;-62
2023/12/03 05:21:02;;;;;;;11.10;5.40;;;;;;;10.27;100.00;99202.19;109278;1253;60071;-63
2023/12/03 05:23:29;;;;;;;17.80;6.30;;;;;;;10.32;100.00;99200.29;109295;1253;73950;-63
2023/12/03 05:25:57;;;;;;;11.40;4.90;;;;;;;10.41;100.00;99193.23;109373;1252;66949;-63
2023/12/03 05:28:25;;;;;;;11.70;5.00;;;;;;;10.53;100.00;99200.31;109363;1253;71369;-63
2023/12/03 05:30:52;;;;;;;11.50;5.60;;;;;;;10.66;100.00;99181.15;109357;1253;60448;-63
2023/12/03 05:33:20;;;;;;;11.50;5.90;;;;;;;10.79;100.00;99178.11;109324;1252;60124;-64
2023/12/03 05:35:48;;;;;;;10.20;5.00;;;;;;;10.88;100.00;99171.52;109360;1253;74693;-62
2023/12/03 05:38:15;;;;;;;14.60;5.60;;;;;;;10.93;100.00;99164.13;109369;1253;67062;-63
2023/12/03 05:40:43;;;;;;;13.30;5.70;;;;;;;10.99;100.00;99155.06;109309;1253;72779;-63
2023/12/03 05:43:10;;;;;;;10.70;4.80;;;;;;;11.03;100.00;99168.36;109346;1252;60410;-63
2023/12/03 05:45:38;;;;;;;16.50;6.60;;;;;;;11.06;100.00;99160.46;109312;1253;60097;-63
2023/12/03 05:48:06;;;;;;;10.40;4.60;;;;;;;11.10;100.00;99167.25;109417;1252;74874;-63
2023/12/03 05:50:34;;;;;;;11.40;5.30;;;;;;;11.14;100.00;99169.44;109362;1252;66948;-63
2023/12/03 05:53:02;;;;;;;12.50;4.80;;;;;;;11.15;100.00;99169.20;109356;1253;72348;-63
2023/12/03 05:55:30;;;;;;;13.50;4.90;;;;;;;11.18;100.00;99161.36;109273;1252;60513;-63
2023/12/03 05:57:58;;;;;;;11.50;5.20;;;;;;;11.25;100.00;99160.63;109396;1253;59227;-63
2023/12/03 06:00:25;;;;;;;15.40;4.90;;;;;;;11.32;100.00;99162.83;109431;1253;74749;-63
2023/12/03 06:02:53;;;;;;;10.80;4.30;;;;;;;11.37;100.00;99160.64;109363;1253;66220;-64
2023/12/03 06:05:20;;;;;;;13.10;4.50;;;;;;;11.40;100.00;99154.27;109340;1252;72779;-64
2023/12/03 06:07:49;;;;;;;11.00;4.10;;;;;;;11.45;100.00;99162.34;109288;1253;61740;-64
2023/12/03 06:10:16;;;;;;;12.00;5.00;;;;;;;11.49;100.00;99145.84;109315;1253;58908;-63
2023/12/03 06:12:44;;;;;;;10.00;5.00;;;;;;;11.51;100.00;99126.87;109359;1252;74774;-63
2023/12/03 06:15:11;;;;;;;9.50;4.50;;;;;;;11.55;100.00;99113.83;109356;1252;65948;-63
2023/12/03 06:17:39;;;;;;;18.10;5.60;;;;;;;11.57;100.00;99109.66;109264;1253;71457;-63
2023/12/03 06:20:08;;;;;;;13.60;6.00;;;;;;;11.61;100.00;99102.27;109317;1253;61890;-63
2023/12/03 06:22:36;;;;;;;17.90;8.60;;;;;;;11.66;100.00;99104.91;109368;1253;60065;-63
2023/12/03 06:25:04;;;;;;;16.40;7.50;;;;;;;11.68;100.00;99131.70;109084;1254;73471;-63
2023/12/03 06:27:31;;;;;;;11.40;6.20;;;;;;;11.73;100.00;99150.94;109116;1254;67050;-63
2023/12/03 06:29:59;;;;;;;15.50;4.90;;;;;;;11.77;100.00;99150.21;109041;1254;73214;-63
2023/12/03 06:32:27;;;;;;;12.30;4.60;;;;;;;11.71;100.00;99136.47;109063;1254;62725;-64
2023/12/03 06:34:54;;;;;;;11.50;4.40;;;;;;;11.77;100.00;99138.20;109198;1255;59031;-64
2023/12/03 06:37:22;;;;;;;11.40;5.70;;;;;;;11.81;100.00;99161.25;109141;1254;73441;-65
2023/12/03 06:39:50;;;;;;;18.80;5.10;;;;;;;11.83;100.00;99169.69;109053;1254;65844;-64
2023/12/03 06:42:18;;;;;;;13.30;4.20;;;;;;;11.87;100.00;99153.71;109092;1254;71469;-65
2023/12/03 06:44:45;;;;;;;14.40;5.40;;;;;;;11.89;100.00;99157.98;109101;1254;61747;-64
2023/12/03 06:47:13;;;;;;;9.00;4.40;;;;;;;11.96;100.00;99162.48;109220;1254;58979;-64
2023/12/03 06:49:42;;;;;;;10.50;5.00;;;;;;;12.01;100.00;99164.09;109042;1254;74785;-64
2023/12/03 06:52:13;;;;;;;10.50;4.90;;;;;;;12.07;100.00;99169.38;109136;1254;66973;-65
2023/12/03 06:54:40;;;;;;;11.60;4.90;;;;;;;12.16;100.00;99171.57;109083;1254;72674;-64
2023/12/03 06:57:08;;;;;;;14.70;4.90;;;;;;;12.20;100.00;99177.52;109088;1254;60471;-65
2023/12/03 06:59:36;;;;;;;12.30;4.80;;;;;;;12.21;100.00;99173.32;109075;1254;58954;-64
2023/12/03 07:02:04;;;;;;;13.90;5.20;;;;;;;12.24;100.00;99167.66;109071;1255;73639;-64
2023/12/03 07:04:32;;;;;;;14.00;4.60;;;;;;;12.27;100.00;99151.21;109098;1254;66318;-64
2023/12/03 07:07:00;;;;;;;14.00;5.20;;;;;;;12.29;100.00;99151.20;109171;1254;72737;-64
2023/12/03 07:09:31;;;;;;;10.60;4.60;;;;;;;12.32;100.00;99169.37;109064;1254;60402;-63
2023/12/03 07:12:07;;;;;;;11.60;4.40;;;;;;;12.33;100.00;99178.03;109118;1254;60134;-64
2023/12/03 07:14:35;;;;;;;11.60;4.30;;;;;;;12.37;100.00;99186.17;109071;1254;74762;-64
2023/12/03 07:17:03;;;;;;;11.30;4.60;;;;;;;12.38;100.00;99182.18;109110;1254;66117;-64
2023/12/03 07:19:30;;;;;;;10.30;4.80;;;;;;;12.41;100.00;99184.52;109083;1254;72738;-63
2023/12/03 07:21:58;;;;;;;11.50;5.20;;;;;;;12.45;100.00;99186.17;109083;1254;61760;-63
2023/12/03 07:24:26;;;;;;;9.70;4.10;;;;;;;12.49;100.00;99196.85;109280;1253;58935;-64
2023/12/03 07:26:54;;;;;;;9.50;4.30;;;;;;;12.53;100.00;99194.82;109342;1253;73538;-64
2023/12/03 07:29:22;;;;;;;14.30;4.50;;;;;;;12.57;100.00;99189.63;109374;1252;66928;-63
2023/12/03 07:31:50;;;;;;;8.70;4.70;;;;;;;12.59;100.00;99188.48;109266;1253;72648;-64
2023/12/03 07:34:18;;;;;;;10.50;4.80;;;;;;;12.59;100.00;99179.07;109282;1253;62692;-64
2023/12/03 07:36:45;;;;;;;13.40;4.20;;;;;;;12.60;100.00;99174.54;109283;1254;58895;-64
2023/12/03 07:39:13;;;;;;;8.90;4.70;;;;;;;12.61;100.00;99166.88;109317;1253;74647;-65
2023/12/03 07:41:50;;;;;;;10.90;4.30;;;;;;;12.64;100.00;99164.30;109327;1253;67520;-64
2023/12/03 07:44:18;;;;;;;11.10;4.80;;;;;;;12.68;100.00;99169.04;109328;1252;71413;-64
2023/12/03 07:46:46;;;;;;;11.90;4.50;;;;;;;12.69;100.00;99168.06;109353;1252;60438;-65
2023/12/03 07:49:13;;;;;;;14.90;5.20;;;;;;;12.72;100.00;99166.16;109358;1254;60153;-64
2023/12/03 07:51:42;;;;;;;10.00;4.70;;;;;;;12.76;100.00;99174.27;109330;1252;73433;-65
2023/12/03 07:54:09;;;;;;;15.70;5.40;;;;;;;12.80;100.00;99177.42;109319;1253;66932;-64
2023/12/03 07:56:38;;;;;;;12.10;5.50;;;;;;;12.81;100.00;99178.75;109377;1254;72729;-65
2023/12/03 07:59:06;;;;;;;15.60;5.60;;;;;;;12.83;100.00;99182.38;109328;1254;60478;-64
2023/12/03 08:01:34;;;;;;;14.10;5.30;;;;;;;12.84;100.00;99190.84;109342;1252;60063;-65
2023/12/03 08:04:03;;;;;;;11.50;5.30;;;;;;;12.87;100.00;99195.79;109294;1253;73468;-64
2023/12/03 08:06:31;;;;;;;12.90;4.80;;;;;;;12.86;100.00;99207.57;109412;1253;65559;-66
2023/12/03 08:09:00;;;;;;;12.70;4.70;;;;;;;12.84;100.00;99218.29;109350;1252;71287;-65
2023/12/03 08:11:27;;;;;;;18.10;9.00;;;;;;;12.87;100.00;99215.59;109365;1254;60367;-65
2023/12/03 08:13:55;;;;;;;20.20;13.20;;;;;;;12.85;100.00;99214.73;109395;1253;60125;-65
2023/12/03 08:16:23;;;;;;;19.30;11.80;;;;;;;12.84;100.00;99215.96;109323;1252;73348;-65
2023/12/03 08:18:50;;;;;;;12.50;6.00;;;;;;;12.81;100.00;99208.09;109391;1253;67039;-66
2023/12/03 08:21:18;;;;;;;14.90;6.40;;;;;;;12.83;100.00;99207.96;109377;1252;71599;-66
2023/12/03 08:23:45;;;;;;;14.60;5.50;;;;;;;12.84;100.00;99201.19;109403;1254;61787;-65
2023/12/03 08:26:13;;;;;;;15.00;5.90;;;;;;;12.85;100.00;99190.24;109348;1252;58989;-66
2023/12/03 08:28:41;;;;;;;13.00;4.80;;;;;;;12.87;100.00;99176.75;109372;1253;75243;-66
2023/12/03 08:31:10;;;;;;;16.50;5.10;;;;;;;12.91;100.00;99184.84;109407;1252;65624;-65
2023/12/03 08:33:40;;;;;;;12.50;4.70;;;;;;;12.93;100.00;99195.20;109223;1254;71419;-65
2023/12/03 08:36:08;;;;;;;10.20;4.50;;;;;;;12.97;100.00;99208.42;109353;1253;60475;-64
2023/12/03 08:38:36;;;;;;;14.80;5.50;;;;;;;12.98;100.00;99205.66;109380;1254;60555;-65
2023/12/03 08:41:03;;;;;;;13.00;5.40;;;;;;;12.98;100.00;99208.48;109398;1253;73372;-65
2023/12/03 08:43:32;;;;;;;10.20;5.20;;;;;;;13.01;100.00;99210.88;109371;1253;65626;-65
2023/12/03 08:46:00;;;;;;;14.90;5.40;;;;;;;13.03;100.00;99214.42;109382;1253;72734;-64
2023/12/03 08:48:27;;;;;;;10.90;5.30;;;;;;;13.06;100.00;99220.11;109365;1254;61686;-65
2023/12/03 08:50:55;;;;;;;10.00;5.20;;;;;;;13.09;100.00;99223.73;109354;1253;60553;-66
2023/12/03 08:53:23;;;;;;;13.70;5.60;;;;;;;13.10;100.00;99226.08;109342;1253;74738;-64
2023/12/03 08:55:50;;;;;;;12.80;5.40;;;;;;;13.11;100.00;99232.83;109385;1254;66286;-64
2023/12/03 08:58:18;;;;;;;12.10;4.80;;;;;;;13.11;100.00;99236.41;109343;1252;72768;-64
2023/12/03 09:00:46;;;;;;;10.50;5.20;;;;;;;13.12;100.00;99236.20;109335;1253;60458;-64
2023/12/03 09:03:13;;;;;;;15.40;5.60;;;;;;;13.13;100.00;99229.75;109398;1252;58998;-64
2023/12/03 09:05:44;;;;;;;18.70;6.00;;;;;;;13.13;100.00;99229.49;109382;1254;74702;-64
2023/12/03 09:08:12;;;;;;;16.10;6.60;;;;;;;13.16;100.00;99229.30;109311;1253;66689;-64
2023/12/03 09:10:39;;;;;;;15.30;7.30;;;;;;;13.18;100.00;99230.70;109304;1253;72740;-63
2023/12/03 09:13:07;;;;;;;13.90;5.50;;;;;;;13.18;100.00;99231.07;109331;1254;61741;-62
2023/12/03 09:15:34;;;;;;;10.60;5.40;;;;;;;13.15;100.00;99237.76;109384;1254;58904;-62
2023/12/03 09:18:02;;;;;;;15.50;6.40;;;;;;;13.14;100.00;99230.05;109373;1252;74748;-62
2023/12/03 09:20:31;;;;;;;14.60;6.70;;;;;;;13.13;100.00;99225.98;109350;1253;67430;-63
2023/12/03 09:22:59;;;;;;;14.80;6.60;;;;;;;13.14;100.00;99227.31;109348;1254;73679;-62
2023/12/03 09:25:26;;;;;;;12.60;7.50;;;;;;;13.14;100.00;99244.55;109321;1253;59490;-62
2023/12/03 09:27:54;;;;;;;18.50;7.50;;;;;;;13.13;100.00;99238.95;109348;1253;59277;-62
2023/12/03 09:30:22;;;;;;;13.80;7.50;;;;;;;13.13;100.00;99233.56;109383;1253;75214;-62
2023/12/03 09:32:50;;;;;;;11.90;7.70;;;;;;;13.16;100.00;99227.77;109289;1253;67978;-62
2023/12/03 09:35:18;;;;;;;17.60;7.30;;;;;;;13.18;100.00;99227.87;109352;1253;71763;-62
2023/12/03 09:37:45;;;;;;;19.40;7.90;;;;;;;13.23;100.00;99235.85;109353;1253;61740;-62
2023/12/03 09:40:13;;;;;;;11.50;6.90;;;;;;;13.30;100.00;99237.52;109155;1252;58929;-62
2023/12/03 09:42:41;;;;;;;12.60;7.30;;;;;;;13.37;100.00;99238.89;109308;1253;74935;-63
2023/12/03 09:45:09;;;;;;;16.10;7.60;;;;;;;13.44;100.00;99242.35;109276;1253;66949;-62
2023/12/03 09:47:37;;;;;;;11.90;6.30;;;;;;;13.48;100.00;99247.10;109256;1253;72743;-61
2023/12/03 09:50:06;;;;;;;11.50;6.60;;;;;;;13.51;100.00;99250.56;109325;1253;60471;-62
2023/12/03 09:52:36;;;;;;;13.30;7.00;;;;;;;13.51;100.00;99257.73;109302;1253;59091;-63
2023/12/03 09:55:04;;;;;;;10.10;6.70;;;;;;;13.49;100.00;99270.22;109284;1253;74664;-62
2023/12/03 09:57:32;;;;;;;11.70;7.10;;;;;;;13.46;100.00;99271.02;109361;1253;67089;-61
2023/12/03 10:00:01;;;;;;;16.10;6.90;;;;;;;13.41;100.00;99269.81;109146;1253;71476;-61
2023/12/03 10:02:36;;;;;;;14.80;7.30;;;;;;;13.41;100.00;99271.95;109330;1253;60458;-62
2023/12/03 10:05:05;;;;;;;18.50;8.40;;;;;;;13.35;100.00;99264.02;109359;1253;59250;-60
2023/12/03 10:07:33;;;;;;;17.50;7.10;;;;;;;13.31;100.00;99260.58;109266;1253;74655;-61
2023/12/03 10:10:01;;;;;;;12.80;7.00;;;;;;;13.30;100.00;99264.67;109318;1253;67449;-61
2023/12/03 10:12:41;;;;;;;15.70;7.80;;;;;;;13.30;100.00;99267.77;109284;1257;72803;-62
2023/12/03 10:15:12;;;;;;;13.10;7.60;;;;;;;13.30;100.00;99262.37;109265;1253;60525;-61
2023/12/03 10:17:40;;;;;;;19.20;7.70;;;;;;;13.27;100.00;99265.96;109329;1253;60929;-61
2023/12/03 10:20:20;;;;;;;14.20;7.80;;;;;;;13.25;100.00;99265.39;109316;1253;74703;-61
2023/12/03 10:22:49;;;;;;;16.60;7.30;;;;;;;13.23;100.00;99261.46;109329;1253;67362;-60
2023/12/03 10:25:27;;;;;;;14.50;8.20;;;;;;;13.20;100.00;99255.73;109347;1253;72752;-60
2023/12/03 10:27:55;;;;;;;15.10;7.90;;;;;;;13.18;100.00;99256.20;109318;1253;61890;-61
2023/12/03 10:30:25;;;;;;;18.30;9.20;;;;;;;13.15;100.00;99253.30;109296;1253;60911;-61
2023/12/03 10:32:53;;;;;;;12.40;7.90;;;;;;;13.14;100.00;99262.52;109427;1253;73054;-61
2023/12/03 10:35:21;;;;;;;13.40;8.10;;;;;;;13.18;100.00;99268.28;109379;1253;69356;-61
2023/12/03 10:37:49;;;;;;;14.00;7.60;;;;;;;13.21;100.00;99270.48;109158;1253;75140;-61
2023/12/03 10:40:18;;;;;;;14.90;8.30;;;;;;;13.22;100.00;99272.45;109246;1253;61757;-60
2023/12/03 10:42:46;;;;;;;11.60;7.70;;;;;;;13.20;100.00;99276.66;109333;1253;58891;-60
2023/12/03 10:45:14;;;;;;;13.10;8.80;;;;;;;13.19;100.00;99275.73;109347;1253;75102;-60
2023/12/03 10:47:42;;;;;;;15.10;7.90;;;;;;;13.18;100.00;99275.49;109165;1253;67305;-60
2023/12/03 10:50:11;;;;;;;12.40;8.30;;;;;;;13.18;100.00;99286.44;109159;1253;72775;-62
2023/12/03 10:52:39;;;;;;;15.40;9.30;;;;;;;13.16;100.00;99290.02;109295;1253;62402;-60
2023/12/03 10:55:08;;;;;;;16.20;10.00;;;;;;;13.14;100.00;99288.34;109373;1253;60250;-60
2023/12/03 10:57:47;;;;;;;15.20;9.60;;;;;;;13.12;100.00;99283.69;109310;1253;74651;-60
2023/12/03 11:00:17;;;;;;;19.80;9.60;;;;;;;13.11;100.00;99285.32;109111;1253;66975;-61
2023/12/03 11:02:47;;;;;;;13.70;9.40;;;;;;;13.09;100.00;99290.98;109305;1253;72765;-60
2023/12/03 11:05:29;;;;;;;;;;;;;;;13.02;100.00;99291.01;109178;1253;62255;-60
2023/12/03 11:07:59;;;;;;;13.20;9.00;;;;;;;12.99;100.00;99288.26;109338;1253;63143;-62
2023/12/03 11:10:27;;;;;;;20.30;10.40;;;;;;;12.97;100.00;99293.33;109272;1253;77524;-60
2023/12/03 11:12:56;;;;;;;19.90;11.40;;;;;;;12.96;100.00;99300.15;109322;1253;68377;-60
2023/12/03 11:15:24;;;;;;;13.90;8.90;;;;;;;12.95;100.00;99301.69;109327;1253;71881;-60
2023/12/03 11:17:52;;;;;;;13.80;9.40;;;;;;;12.92;100.00;99305.51;109156;1253;63200;-60